Time;durP1;ratioP1;P1;durP2;ratioP2;P2;SDS_P1;SDS_P2;PMS_P1;PMS_P2;Temp;Humidity;BMP_temperature;BMP_pressure;BME280_temperature;BME280_humidity;BME280_pressure;Samples;Min_cycle;Max_cycle;Signal;HPM_P1;HPM_P2
2022/10/27 00:02:12;;;;;;;34.42;24.50;;;;;;;;;;4969254;28;20440;-75
2022/10/27 00:04:38;;;;;;;36.78;26.20;;;;;;;;;;4969954;28;20502;-75
2022/10/27 00:07:04;;;;;;;37.17;25.70;;;;;;;;;;4967862;28;20182;-75
2022/10/27 00:09:30;;;;;;;42.05;27.35;;;;;;;;;;4968965;28;20042;-75
2022/10/27 00:11:56;;;;;;;36.83;26.45;;;;;;;;;;4975885;28;20034;-75
2022/10/27 00:14:22;;;;;;;41.65;27.15;;;;;;;;;;4972140;28;20043;-75
2022/10/27 00:16:53;;;;;;;33.13;23.27;;;;;;;;;;4972700;28;20029;-76
2022/10/27 00:19:19;;;;;;;35.00;23.38;;;;;;;;;;4973337;28;20078;-76
2022/10/27 00:21:46;;;;;;;29.90;20.67;;;;;;;;;;4971995;28;20037;-75
2022/10/27 00:24:12;;;;;;;33.83;20.35;;;;;;;;;;4972399;28;20029;-75
2022/10/27 00:26:38;;;;;;;29.63;18.85;;;;;;;;;;4973623;28;20070;-75
2022/10/27 00:29:04;;;;;;;26.33;17.38;;;;;;;;;;4971122;28;20022;-75
2022/10/27 00:31:30;;;;;;;23.75;16.17;;;;;;;;;;4968394;28;20027;-75
2022/10/27 00:33:56;;;;;;;20.90;14.80;;;;;;;;;;4974712;28;20209;-75
2022/10/27 00:36:23;;;;;;;23.65;16.08;;;;;;;;;;4966109;28;20041;-75
2022/10/27 00:38:52;;;;;;;25.17;17.63;;;;;;;;;;4974895;28;20037;-75
2022/10/27 00:41:39;;;;;;;25.67;17.60;;;;;;;;;;4967200;28;20042;-75
2022/10/27 00:44:23;;;;;;;27.58;17.83;;;;;;;;;;4978183;28;20042;-75
2022/10/27 00:46:50;;;;;;;27.83;18.15;;;;;;;;;;4971267;28;20086;-76
2022/10/27 00:49:17;;;;;;;25.15;17.15;;;;;;;;;;4968796;28;20497;-76
2022/10/27 00:51:49;;;;;;;27.95;16.25;;;;;;;;;;4967262;28;20062;-75
2022/10/27 00:54:17;;;;;;;25.92;16.42;;;;;;;;;;4973392;28;20027;-75
2022/10/27 00:56:45;;;;;;;20.98;15.18;;;;;;;;;;4971614;28;20054;-75
2022/10/27 00:59:11;;;;;;;23.83;16.80;;;;;;;;;;4969665;28;20042;-75
2022/10/27 01:01:37;;;;;;;24.17;15.25;;;;;;;;;;4963325;28;20134;-75
2022/10/27 01:04:04;;;;;;;21.85;14.32;;;;;;;;;;4973349;28;20027;-75
2022/10/27 01:06:30;;;;;;;22.13;13.95;;;;;;;;;;4970130;28;20373;-76
2022/10/27 01:08:57;;;;;;;15.90;9.75;;;;;;;;;;4973206;28;20365;-75
2022/10/27 01:11:23;;;;;;;13.15;8.52;;;;;;;;;;4966795;28;20039;-75
2022/10/27 01:13:50;;;;;;;11.27;8.00;;;;;;;;;;4968736;28;20019;-75
2022/10/27 01:16:16;;;;;;;14.07;8.50;;;;;;;;;;4973114;28;20035;-75
2022/10/27 01:19:12;;;;;;;10.32;7.28;;;;;;;;;;4970931;28;20030;-76
2022/10/27 01:21:41;;;;;;;13.55;8.15;;;;;;;;;;4876444;29;20044;-75
2022/10/27 01:24:42;;;;;;;12.50;7.93;;;;;;;;;;4876906;29;20048;-75
2022/10/27 01:27:15;;;;;;;10.80;7.07;;;;;;;;;;4802564;29;20038;-74
2022/10/27 01:29:47;;;;;;;12.55;7.15;;;;;;;;;;4805722;29;20050;-75
2022/10/27 01:32:36;;;;;;;10.25;6.78;;;;;;;;;;4804454;29;20046;-76
2022/10/27 01:35:12;;;;;;;10.57;7.00;;;;;;;;;;4763584;30;21568;-76
2022/10/27 01:37:38;;;;;;;12.73;7.03;;;;;;;;;;4756817;29;20044;-75
2022/10/27 01:40:10;;;;;;;13.48;7.07;;;;;;;;;;4774097;29;20040;-75
2022/10/27 01:42:39;;;;;;;12.25;7.63;;;;;;;;;;4776998;30;20130;-75
2022/10/27 01:45:06;;;;;;;11.13;6.85;;;;;;;;;;4767962;30;20039;-75
2022/10/27 01:47:32;;;;;;;14.13;8.00;;;;;;;;;;4767636;30;20100;-75
2022/10/27 01:49:58;;;;;;;14.07;7.63;;;;;;;;;;4766664;30;20048;-75
2022/10/27 01:52:42;;;;;;;15.90;7.50;;;;;;;;;;4769138;30;20058;-75
2022/10/27 01:55:15;;;;;;;13.88;7.85;;;;;;;;;;4767013;30;20052;-74
2022/10/27 01:57:47;;;;;;;15.32;7.40;;;;;;;;;;4793180;29;20046;-75
2022/10/27 02:00:14;;;;;;;10.85;7.00;;;;;;;;;;4829086;29;20036;-75
2022/10/27 02:02:43;;;;;;;13.90;7.03;;;;;;;;;;4909221;29;20109;-75
2022/10/27 02:05:21;;;;;;;11.00;6.70;;;;;;;;;;4910215;29;20453;-75
2022/10/27 02:07:50;;;;;;;11.30;6.85;;;;;;;;;;4914764;29;20036;-75
2022/10/27 02:10:18;;;;;;;10.57;6.97;;;;;;;;;;4914249;29;20043;-75
2022/10/27 02:12:45;;;;;;;10.32;6.72;;;;;;;;;;4944153;28;20055;-75
2022/10/27 02:15:32;;;;;;;9.77;6.78;;;;;;;;;;4970338;28;20032;-75
2022/10/27 02:18:02;;;;;;;10.13;6.78;;;;;;;;;;4967054;28;20031;-75
2022/10/27 02:20:30;;;;;;;9.05;6.25;;;;;;;;;;4963958;28;20023;-76
2022/10/27 02:22:57;;;;;;;11.52;6.10;;;;;;;;;;4968070;28;20508;-75
2022/10/27 02:25:27;;;;;;;12.43;6.30;;;;;;;;;;4955270;28;20042;-75
2022/10/27 02:27:56;;;;;;;10.85;6.53;;;;;;;;;;4966194;28;20122;-76
2022/10/27 02:30:22;;;;;;;9.75;6.40;;;;;;;;;;4971478;28;20030;-76
2022/10/27 02:32:50;;;;;;;9.90;6.18;;;;;;;;;;4967602;28;20051;-76
2022/10/27 02:35:16;;;;;;;10.77;6.50;;;;;;;;;;4971508;28;20113;-76
2022/10/27 02:37:43;;;;;;;10.05;6.50;;;;;;;;;;4973174;28;20027;-76
2022/10/27 02:40:09;;;;;;;10.93;6.35;;;;;;;;;;4971954;28;20033;-76
2022/10/27 02:42:35;;;;;;;11.32;6.03;;;;;;;;;;4975932;28;20029;-75
2022/10/27 02:45:01;;;;;;;11.20;5.95;;;;;;;;;;4979162;28;20115;-75
2022/10/27 02:47:27;;;;;;;9.88;5.40;;;;;;;;;;4969725;28;20555;-75
2022/10/27 02:49:53;;;;;;;10.93;5.97;;;;;;;;;;4973527;28;20503;-75
2022/10/27 02:52:19;;;;;;;9.35;5.65;;;;;;;;;;4972900;28;20455;-75
2022/10/27 02:54:47;;;;;;;10.00;5.68;;;;;;;;;;4976732;28;20058;-75
2022/10/27 02:57:16;;;;;;;7.60;5.35;;;;;;;;;;4973842;28;20018;-76
2022/10/27 02:59:42;;;;;;;9.10;4.75;;;;;;;;;;4966446;28;20071;-75
2022/10/27 03:02:08;;;;;;;8.80;5.38;;;;;;;;;;4971255;28;20384;-75
2022/10/27 03:04:34;;;;;;;8.02;4.90;;;;;;;;;;4973871;28;20019;-77
2022/10/27 03:07:00;;;;;;;8.05;4.97;;;;;;;;;;4965676;28;20051;-76
2022/10/27 03:09:26;;;;;;;8.70;5.20;;;;;;;;;;4969575;28;20038;-76
2022/10/27 03:11:52;;;;;;;10.80;5.72;;;;;;;;;;4970179;28;20027;-75
2022/10/27 03:14:18;;;;;;;10.05;5.18;;;;;;;;;;4976350;28;20066;-75
2022/10/27 03:16:45;;;;;;;10.77;5.40;;;;;;;;;;4966302;28;20042;-75
2022/10/27 03:19:11;;;;;;;8.30;5.45;;;;;;;;;;4974190;28;20039;-76
2022/10/27 03:21:37;;;;;;;10.00;6.05;;;;;;;;;;4968152;28;20057;-76
2022/10/27 03:24:03;;;;;;;8.98;5.78;;;;;;;;;;4976702;28;20589;-76
2022/10/27 03:26:29;;;;;;;10.77;6.30;;;;;;;;;;4976759;28;20058;-76
2022/10/27 03:28:55;;;;;;;11.48;6.68;;;;;;;;;;4974767;28;20030;-76
2022/10/27 03:31:21;;;;;;;10.48;6.60;;;;;;;;;;4968897;28;20042;-76
2022/10/27 03:33:47;;;;;;;9.50;6.70;;;;;;;;;;4974735;28;20502;-76
2022/10/27 03:36:14;;;;;;;11.52;6.85;;;;;;;;;;4972063;28;20106;-76
2022/10/27 03:38:40;;;;;;;10.63;6.70;;;;;;;;;;4970961;28;20027;-75
2022/10/27 03:41:06;;;;;;;13.18;5.55;;;;;;;;;;4968225;28;20062;-76
2022/10/27 03:43:32;;;;;;;29.15;19.67;;;;;;;;;;4974179;28;20106;-76
2022/10/27 03:45:58;;;;;;;21.40;14.30;;;;;;;;;;4972761;28;20420;-76
2022/10/27 03:48:24;;;;;;;15.40;8.48;;;;;;;;;;4973210;28;20022;-75
2022/10/27 03:50:50;;;;;;;16.33;9.20;;;;;;;;;;4969904;28;20061;-75
2022/10/27 03:53:17;;;;;;;21.65;10.52;;;;;;;;;;4972102;28;20046;-76
2022/10/27 03:55:43;;;;;;;19.05;10.75;;;;;;;;;;4971867;28;20023;-75
2022/10/27 03:58:12;;;;;;;21.25;11.13;;;;;;;;;;4961510;28;20037;-75
2022/10/27 04:00:38;;;;;;;20.65;10.82;;;;;;;;;;4974851;28;20094;-75
2022/10/27 04:03:04;;;;;;;16.83;10.90;;;;;;;;;;4975394;28;20018;-76
2022/10/27 04:05:30;;;;;;;24.10;13.90;;;;;;;;;;4973090;28;20027;-75
2022/10/27 04:07:56;;;;;;;27.65;13.07;;;;;;;;;;4974523;28;20019;-76
2022/10/27 04:10:22;;;;;;;23.30;13.48;;;;;;;;;;4971737;28;20114;-75
2022/10/27 04:12:49;;;;;;;24.50;12.57;;;;;;;;;;4975578;28;20026;-76
2022/10/27 04:15:15;;;;;;;22.02;12.25;;;;;;;;;;4972370;28;20041;-76
2022/10/27 04:17:41;;;;;;;21.13;11.95;;;;;;;;;;4965558;28;20023;-75
2022/10/27 04:20:07;;;;;;;22.80;12.63;;;;;;;;;;4972630;28;20121;-76
2022/10/27 04:22:33;;;;;;;18.55;11.63;;;;;;;;;;4969617;28;20097;-75
2022/10/27 04:24:59;;;;;;;24.88;11.55;;;;;;;;;;4975225;28;20089;-75
2022/10/27 04:27:25;;;;;;;20.20;11.38;;;;;;;;;;4972423;28;20027;-74
2022/10/27 04:29:51;;;;;;;18.00;11.07;;;;;;;;;;4971822;28;20090;-75
2022/10/27 04:32:18;;;;;;;18.55;11.00;;;;;;;;;;4971041;28;20086;-75
2022/10/27 04:34:44;;;;;;;20.83;10.13;;;;;;;;;;4971183;28;20031;-75
2022/10/27 04:37:10;;;;;;;17.52;10.75;;;;;;;;;;4970195;28;20026;-75
2022/10/27 04:39:36;;;;;;;21.55;10.50;;;;;;;;;;4970635;28;20054;-76
2022/10/27 04:42:02;;;;;;;18.33;10.23;;;;;;;;;;4970806;28;20034;-76
2022/10/27 04:44:28;;;;;;;16.42;10.60;;;;;;;;;;4969300;28;20031;-76
2022/10/27 04:46:54;;;;;;;21.15;10.80;;;;;;;;;;4971553;28;20035;-75
2022/10/27 04:49:20;;;;;;;18.30;9.82;;;;;;;;;;4965995;28;20365;-75
2022/10/27 04:51:46;;;;;;;18.83;10.02;;;;;;;;;;4969176;28;20047;-76
2022/10/27 04:54:12;;;;;;;17.52;10.43;;;;;;;;;;4969361;28;20058;-75
2022/10/27 04:56:38;;;;;;;16.70;11.05;;;;;;;;;;4965804;28;20026;-75
2022/10/27 04:59:04;;;;;;;21.42;10.50;;;;;;;;;;4969605;28;20105;-75
2022/10/27 05:01:30;;;;;;;25.65;11.23;;;;;;;;;;4972088;28;20019;-75
2022/10/27 05:03:56;;;;;;;20.02;12.20;;;;;;;;;;4969883;28;20027;-76
2022/10/27 05:06:22;;;;;;;16.77;10.27;;;;;;;;;;4966857;28;20121;-75
2022/10/27 05:08:48;;;;;;;18.55;10.60;;;;;;;;;;4969725;28;20034;-75
2022/10/27 05:11:17;;;;;;;19.95;11.07;;;;;;;;;;4969887;28;20039;-75
2022/10/27 05:13:43;;;;;;;20.40;12.00;;;;;;;;;;4954608;28;20026;-74
2022/10/27 05:16:09;;;;;;;18.98;12.30;;;;;;;;;;4975070;28;20077;-74
2022/10/27 05:18:35;;;;;;;25.58;12.57;;;;;;;;;;4966902;28;20397;-74
2022/10/27 05:21:01;;;;;;;19.70;10.98;;;;;;;;;;4952269;28;20050;-75
2022/10/27 05:23:27;;;;;;;21.13;12.00;;;;;;;;;;4968439;28;20030;-74
2022/10/27 05:25:54;;;;;;;24.55;11.68;;;;;;;;;;4971556;28;20030;-74
2022/10/27 05:28:20;;;;;;;23.20;11.35;;;;;;;;;;4965923;28;20074;-74
2022/10/27 05:30:46;;;;;;;25.15;10.95;;;;;;;;;;4972113;28;20531;-74
2022/10/27 05:33:13;;;;;;;19.55;11.10;;;;;;;;;;4972842;28;20050;-75
2022/10/27 05:35:39;;;;;;;20.58;10.32;;;;;;;;;;4968914;28;20030;-76
2022/10/27 05:38:05;;;;;;;21.25;9.68;;;;;;;;;;4969216;28;20027;-76
2022/10/27 05:40:33;;;;;;;20.40;9.57;;;;;;;;;;4962498;28;20029;-76
2022/10/27 05:43:02;;;;;;;18.42;9.88;;;;;;;;;;4960114;28;20055;-75
2022/10/27 05:45:29;;;;;;;21.02;10.52;;;;;;;;;;4964450;28;20038;-75
2022/10/27 05:47:59;;;;;;;44.08;12.20;;;;;;;;;;4968070;28;20023;-75
2022/10/27 05:50:26;;;;;;;28.92;16.20;;;;;;;;;;4963549;28;20054;-78
2022/10/27 05:52:52;;;;;;;33.00;19.92;;;;;;;;;;4973507;28;20504;-75
2022/10/27 05:55:18;;;;;;;21.75;11.43;;;;;;;;;;4972409;28;20105;-75
2022/10/27 05:57:52;;;;;;;18.20;10.77;;;;;;;;;;4968381;28;20024;-76
2022/10/27 06:00:18;;;;;;;14.90;8.73;;;;;;;;;;4947900;28;20489;-76
2022/10/27 06:02:44;;;;;;;18.77;9.32;;;;;;;;;;4962999;28;20043;-75
2022/10/27 06:05:10;;;;;;;22.30;9.15;;;;;;;;;;4970222;28;20114;-74
2022/10/27 06:07:36;;;;;;;18.95;7.53;;;;;;;;;;4970177;28;20031;-75
2022/10/27 06:10:02;;;;;;;18.10;8.63;;;;;;;;;;4971946;28;20035;-75
2022/10/27 06:12:28;;;;;;;15.80;10.27;;;;;;;;;;4976511;28;20101;-75
2022/10/27 06:14:54;;;;;;;19.58;8.48;;;;;;;;;;4972054;28;20027;-76
2022/10/27 06:17:23;;;;;;;24.95;9.65;;;;;;;;;;4968451;28;20023;-75
2022/10/27 06:19:49;;;;;;;21.95;9.02;;;;;;;;;;4968316;28;20026;-75
2022/10/27 06:22:15;;;;;;;18.15;10.73;;;;;;;;;;4974891;28;20077;-75
2022/10/27 06:24:41;;;;;;;19.65;8.23;;;;;;;;;;4972278;28;20027;-74
2022/10/27 06:27:08;;;;;;;15.50;7.82;;;;;;;;;;4973836;28;20058;-75
2022/10/27 06:29:34;;;;;;;15.63;8.10;;;;;;;;;;4968198;28;20030;-75
2022/10/27 06:32:00;;;;;;;22.65;9.45;;;;;;;;;;4972081;28;20037;-75
2022/10/27 06:34:26;;;;;;;15.68;9.93;;;;;;;;;;4974226;28;20050;-75
2022/10/27 06:36:52;;;;;;;17.65;9.50;;;;;;;;;;4978673;28;20030;-75
2022/10/27 06:39:28;;;;;;;21.30;9.35;;;;;;;;;;4975337;28;20027;-75
2022/10/27 06:41:55;;;;;;;12.70;8.88;;;;;;;;;;4973203;28;20034;-76
2022/10/27 06:44:21;;;;;;;16.50;9.85;;;;;;;;;;4977393;28;20085;-75
2022/10/27 06:46:47;;;;;;;14.95;9.15;;;;;;;;;;4972690;28;20463;-75
2022/10/27 06:49:13;;;;;;;19.15;9.07;;;;;;;;;;4971323;28;20034;-75
2022/10/27 06:51:39;;;;;;;13.60;8.25;;;;;;;;;;4973493;28;20089;-76
2022/10/27 06:54:05;;;;;;;16.95;9.57;;;;;;;;;;4970085;28;20022;-75
2022/10/27 06:56:33;;;;;;;16.13;9.18;;;;;;;;;;4975714;28;20030;-75
2022/10/27 06:59:01;;;;;;;17.45;8.38;;;;;;;;;;4973479;28;20457;-75
2022/10/27 07:01:27;;;;;;;19.23;10.60;;;;;;;;;;4972786;28;20101;-76
2022/10/27 07:03:53;;;;;;;20.75;11.48;;;;;;;;;;4975469;28;20030;-75
2022/10/27 07:06:19;;;;;;;27.00;12.93;;;;;;;;;;4968487;28;20027;-75
2022/10/27 07:08:46;;;;;;;23.40;12.65;;;;;;;;;;4968761;28;20018;-75
2022/10/27 07:11:12;;;;;;;28.75;13.38;;;;;;;;;;4971823;28;20046;-75
2022/10/27 07:13:38;;;;;;;27.58;15.13;;;;;;;;;;4968915;28;20023;-75
2022/10/27 07:16:04;;;;;;;30.13;15.60;;;;;;;;;;4966488;28;20110;-76
2022/10/27 07:18:32;;;;;;;29.50;16.02;;;;;;;;;;4972639;28;20140;-75
2022/10/27 07:20:58;;;;;;;42.20;18.35;;;;;;;;;;4969344;28;20054;-75
2022/10/27 07:28:50;;;;;;;36.05;17.73;;;;;;;;;;5207553;22;20418;-76
2022/10/27 07:31:16;;;;;;;34.17;16.77;;;;;;;;;;5051494;28;20090;-75
2022/10/27 07:33:43;;;;;;;33.90;16.27;;;;;;;;;;5052630;28;20053;-74
2022/10/27 07:36:09;;;;;;;33.60;17.30;;;;;;;;;;5050740;28;20075;-74
2022/10/27 07:38:35;;;;;;;27.67;14.75;;;;;;;;;;5057440;28;20032;-74
2022/10/27 07:41:01;;;;;;;33.85;15.45;;;;;;;;;;5049014;28;20173;-74
2022/10/27 07:43:28;;;;;;;26.90;13.82;;;;;;;;;;5049727;28;20022;-74
2022/10/27 07:45:54;;;;;;;27.58;12.68;;;;;;;;;;5051257;28;20608;-74
2022/10/27 07:48:20;;;;;;;22.50;11.30;;;;;;;;;;5045740;28;20494;-74
2022/10/27 07:50:46;;;;;;;18.98;10.52;;;;;;;;;;5050305;28;20045;-74
2022/10/27 07:53:15;;;;;;;26.25;10.43;;;;;;;;;;5049170;28;20441;-74
2022/10/27 07:55:41;;;;;;;24.67;11.23;;;;;;;;;;5051552;28;20124;-74
2022/10/27 07:58:12;;;;;;;21.02;9.75;;;;;;;;;;5052902;28;20060;-74
2022/10/27 08:00:40;;;;;;;18.85;9.70;;;;;;;;;;5060564;28;20048;-73
2022/10/27 08:03:08;;;;;;;22.52;9.55;;;;;;;;;;5044873;28;20513;-73
2022/10/27 08:05:35;;;;;;;17.42;10.10;;;;;;;;;;5046127;28;20036;-74
2022/10/27 08:08:02;;;;;;;16.73;9.40;;;;;;;;;;5049990;28;20053;-74
2022/10/27 08:10:29;;;;;;;21.95;10.40;;;;;;;;;;5045862;28;20056;-74
2022/10/27 08:12:55;;;;;;;28.63;13.20;;;;;;;;;;5050596;28;20025;-76
2022/10/27 08:15:21;;;;;;;28.55;13.38;;;;;;;;;;5051224;28;20068;-75
2022/10/27 08:18:00;;;;;;;26.63;12.52;;;;;;;;;;5047493;28;20028;-75
2022/10/27 08:20:30;;;;;;;22.42;11.68;;;;;;;;;;5045428;28;20025;-76
2022/10/27 08:23:00;;;;;;;19.50;10.82;;;;;;;;;;5053304;28;20096;-74
2022/10/27 08:25:26;;;;;;;20.23;11.35;;;;;;;;;;5050662;28;20060;-74
2022/10/27 08:27:52;;;;;;;20.23;10.85;;;;;;;;;;5048674;28;20492;-74
2022/10/27 08:30:19;;;;;;;26.05;12.60;;;;;;;;;;5038611;28;20617;-74
2022/10/27 08:32:46;;;;;;;19.38;10.95;;;;;;;;;;5028396;28;20055;-74
2022/10/27 08:35:12;;;;;;;18.80;10.63;;;;;;;;;;5031361;28;20594;-73
2022/10/27 08:37:38;;;;;;;18.55;10.07;;;;;;;;;;5037683;28;20083;-73
2022/10/27 08:40:05;;;;;;;16.63;9.63;;;;;;;;;;5033440;28;20478;-74
2022/10/27 08:42:31;;;;;;;27.13;11.35;;;;;;;;;;5038674;28;20037;-74
2022/10/27 08:45:02;;;;;;;24.60;11.18;;;;;;;;;;5036563;28;20034;-74
2022/10/27 08:47:29;;;;;;;17.02;9.68;;;;;;;;;;5039047;28;20092;-74
2022/10/27 08:49:58;;;;;;;14.23;9.57;;;;;;;;;;5035195;28;20365;-74
2022/10/27 08:52:38;;;;;;;25.80;10.68;;;;;;;;;;5032393;28;20060;-74
2022/10/27 08:55:14;;;;;;;22.33;10.52;;;;;;;;;;5031435;28;20104;-73
2022/10/27 08:57:46;;;;;;;17.65;9.70;;;;;;;;;;5032283;28;20040;-74
2022/10/27 09:00:12;;;;;;;17.92;9.93;;;;;;;;;;5028926;28;20025;-74
2022/10/27 09:02:49;;;;;;;23.77;11.77;;;;;;;;;;5027932;28;20095;-73
2022/10/27 09:05:34;;;;;;;23.50;11.27;;;;;;;;;;5039836;28;20037;-73
2022/10/27 09:08:09;;;;;;;19.92;10.45;;;;;;;;;;5028920;28;20040;-73
2022/10/27 09:10:35;;;;;;;18.85;11.27;;;;;;;;;;5031840;28;20068;-74
2022/10/27 09:13:01;;;;;;;20.67;11.13;;;;;;;;;;5038584;28;20056;-73
2022/10/27 09:15:38;;;;;;;22.13;10.82;;;;;;;;;;5045465;28;20029;-73
2022/10/27 09:18:07;;;;;;;32.35;11.18;;;;;;;;;;5038177;28;20033;-74
2022/10/27 09:20:42;;;;;;;48.50;11.68;;;;;;;;;;5027496;28;20028;-74
2022/10/27 09:23:19;;;;;;;30.50;11.02;;;;;;;;;;5039808;28;20033;-74
2022/10/27 09:25:47;;;;;;;30.40;11.30;;;;;;;;;;5033440;28;20151;-74
2022/10/27 09:28:22;;;;;;;18.52;9.57;;;;;;;;;;5022930;28;20094;-73
2022/10/27 09:30:50;;;;;;;24.38;10.18;;;;;;;;;;5032645;28;20037;-75
2022/10/27 09:33:19;;;;;;;18.25;9.95;;;;;;;;;;5031193;28;20490;-74
2022/10/27 09:35:45;;;;;;;24.70;9.80;;;;;;;;;;5036263;28;20040;-74
2022/10/27 09:38:15;;;;;;;19.20;9.75;;;;;;;;;;5035517;28;20021;-74
2022/10/27 09:40:41;;;;;;;21.60;8.88;;;;;;;;;;5031035;28;20029;-74
2022/10/27 09:43:09;;;;;;;20.98;8.93;;;;;;;;;;5043134;28;20130;-74
2022/10/27 09:45:35;;;;;;;23.98;9.45;;;;;;;;;;5030674;28;20109;-74
2022/10/27 09:48:06;;;;;;;19.83;8.65;;;;;;;;;;5038307;28;20458;-74
2022/10/27 09:50:51;;;;;;;17.90;8.88;;;;;;;;;;5028831;28;20052;-75
2022/10/27 09:53:35;;;;;;;18.63;8.20;;;;;;;;;;5042827;28;20047;-74
2022/10/27 09:56:01;;;;;;;13.30;8.18;;;;;;;;;;5028716;28;20045;-73
2022/10/27 09:58:27;;;;;;;15.85;9.40;;;;;;;;;;5033530;28;20086;-74
2022/10/27 10:00:57;;;;;;;20.73;9.82;;;;;;;;;;5030507;28;20491;-74
2022/10/27 10:03:23;;;;;;;18.65;10.23;;;;;;;;;;5043183;28;20494;-75
2022/10/27 10:06:03;;;;;;;17.38;9.40;;;;;;;;;;5035220;28;20052;-74
2022/10/27 10:08:32;;;;;;;21.52;10.80;;;;;;;;;;5038416;28;20116;-74
2022/10/27 10:10:58;;;;;;;21.83;9.85;;;;;;;;;;5023307;28;20116;-74
2022/10/27 10:13:25;;;;;;;21.30;11.02;;;;;;;;;;5027878;28;20022;-73
2022/10/27 10:16:24;;;;;;;18.33;11.27;;;;;;;;;;5035908;28;20022;-74
2022/10/27 10:18:58;;;;;;;19.55;11.27;;;;;;;;;;4971105;28;20046;-74
2022/10/27 10:21:24;;;;;;;17.20;10.60;;;;;;;;;;4970520;28;20038;-74
2022/10/27 10:23:54;;;;;;;20.55;10.90;;;;;;;;;;4970402;28;20030;-74
2022/10/27 10:26:24;;;;;;;19.48;10.75;;;;;;;;;;4969786;28;20185;-74
2022/10/27 10:28:53;;;;;;;16.00;10.40;;;;;;;;;;4962818;28;20051;-74
2022/10/27 10:31:24;;;;;;;20.00;10.73;;;;;;;;;;4968273;28;20030;-72
2022/10/27 10:33:51;;;;;;;16.27;11.10;;;;;;;;;;4967558;28;20102;-74
2022/10/27 10:36:19;;;;;;;21.75;11.43;;;;;;;;;;4970846;28;20033;-74
2022/10/27 10:38:49;;;;;;;18.42;10.93;;;;;;;;;;4971932;28;20519;-74
2022/10/27 10:41:16;;;;;;;20.70;11.25;;;;;;;;;;4970967;28;20066;-73
2022/10/27 10:43:42;;;;;;;20.52;11.45;;;;;;;;;;4969886;28;20034;-73
2022/10/27 10:46:24;;;;;;;20.23;11.50;;;;;;;;;;4963193;28;20162;-74
2022/10/27 10:48:54;;;;;;;19.33;10.93;;;;;;;;;;4965826;28;20091;-74
2022/10/27 10:51:24;;;;;;;17.48;10.18;;;;;;;;;;4972681;28;20078;-74
2022/10/27 10:53:52;;;;;;;19.08;10.18;;;;;;;;;;4986290;28;20484;-74
2022/10/27 10:56:25;;;;;;;19.13;9.93;;;;;;;;;;5034665;28;20036;-73
2022/10/27 10:59:03;;;;;;;26.08;9.77;;;;;;;;;;5036680;28;20087;-74
2022/10/27 11:01:41;;;;;;;18.10;9.82;;;;;;;;;;5035883;28;20053;-74
2022/10/27 11:04:10;;;;;;;16.98;10.13;;;;;;;;;;5029015;28;20441;-74
2022/10/27 11:06:36;;;;;;;16.83;9.73;;;;;;;;;;5028761;28;20092;-74
2022/10/27 11:09:03;;;;;;;14.57;8.70;;;;;;;;;;5035055;28;20026;-73
2022/10/27 11:11:35;;;;;;;16.00;8.43;;;;;;;;;;5035631;28;20029;-73
2022/10/27 11:14:12;;;;;;;17.80;8.90;;;;;;;;;;5045827;28;20025;-74
2022/10/27 11:16:39;;;;;;;18.58;8.48;;;;;;;;;;5027175;28;20025;-74
2022/10/27 11:19:06;;;;;;;16.33;9.02;;;;;;;;;;5038433;28;20993;-73
2022/10/27 11:21:32;;;;;;;20.15;8.73;;;;;;;;;;5040668;28;20021;-73
2022/10/27 11:24:16;;;;;;;17.00;9.02;;;;;;;;;;5040799;28;20029;-74
2022/10/27 11:27:03;;;;;;;15.43;8.65;;;;;;;;;;5028384;28;20030;-74
2022/10/27 11:29:41;;;;;;;16.05;7.93;;;;;;;;;;5052191;28;20037;-73
2022/10/27 11:32:13;;;;;;;16.45;8.75;;;;;;;;;;5060209;28;20033;-73
2022/10/27 11:34:58;;;;;;;16.90;8.38;;;;;;;;;;5058927;28;20083;-74
2022/10/27 11:37:30;;;;;;;18.42;8.07;;;;;;;;;;5048575;28;20025;-73
2022/10/27 11:40:01;;;;;;;16.35;8.10;;;;;;;;;;5043548;28;20075;-74
2022/10/27 11:42:38;;;;;;;15.35;8.52;;;;;;;;;;5045361;28;20433;-74
2022/10/27 11:45:19;;;;;;;19.42;7.60;;;;;;;;;;5039965;28;20025;-73
2022/10/27 11:47:50;;;;;;;13.23;7.20;;;;;;;;;;5049142;28;20029;-73
2022/10/27 11:50:27;;;;;;;14.30;7.95;;;;;;;;;;5053396;28;20032;-74
2022/10/27 11:52:55;;;;;;;15.30;7.32;;;;;;;;;;5051373;28;20025;-74
2022/10/27 11:55:22;;;;;;;17.30;7.25;;;;;;;;;;5059937;28;20016;-73
2022/10/27 11:57:57;;;;;;;14.30;7.50;;;;;;;;;;5047715;28;20039;-74
2022/10/27 12:00:24;;;;;;;14.57;6.45;;;;;;;;;;5046379;28;20383;-74
2022/10/27 12:02:53;;;;;;;16.10;7.45;;;;;;;;;;5042542;28;20402;-74
2022/10/27 12:05:21;;;;;;;12.02;6.57;;;;;;;;;;5048344;28;20029;-74
2022/10/27 12:08:06;;;;;;;16.88;7.43;;;;;;;;;;5047615;28;20021;-74
2022/10/27 12:10:47;;;;;;;12.13;7.15;;;;;;;;;;5045887;28;20120;-74
2022/10/27 12:13:21;;;;;;;14.10;7.03;;;;;;;;;;5053686;28;20627;-74
2022/10/27 12:15:59;;;;;;;14.48;6.75;;;;;;;;;;5054401;28;20032;-74
2022/10/27 12:18:34;;;;;;;14.80;6.70;;;;;;;;;;5056657;28;20029;-73
2022/10/27 12:21:06;;;;;;;15.27;6.75;;;;;;;;;;5055048;28;20032;-74
2022/10/27 12:23:42;;;;;;;17.25;6.95;;;;;;;;;;5051553;28;20029;-74
2022/10/27 12:26:08;;;;;;;13.25;6.75;;;;;;;;;;5051308;28;20021;-74
2022/10/27 12:28:38;;;;;;;12.07;6.35;;;;;;;;;;5048855;28;20399;-74
2022/10/27 12:31:06;;;;;;;12.10;6.70;;;;;;;;;;5056143;28;20042;-73
2022/10/27 12:33:36;;;;;;;12.07;6.95;;;;;;;;;;5047419;28;20029;-74
2022/10/27 12:36:07;;;;;;;14.80;6.78;;;;;;;;;;5052891;28;20021;-73
2022/10/27 12:38:36;;;;;;;14.02;7.18;;;;;;;;;;5044925;28;20020;-73
2022/10/27 12:41:02;;;;;;;16.02;6.85;;;;;;;;;;5050954;28;20025;-74
2022/10/27 12:43:36;;;;;;;15.57;6.30;;;;;;;;;;5054208;28;20025;-74
2022/10/27 12:46:02;;;;;;;14.40;6.57;;;;;;;;;;5042467;28;20477;-73
2022/10/27 12:48:34;;;;;;;11.25;6.63;;;;;;;;;;5043549;28;20493;-74
2022/10/27 12:51:19;;;;;;;14.27;7.03;;;;;;;;;;5048123;28;20041;-74
2022/10/27 12:53:45;;;;;;;14.98;7.00;;;;;;;;;;5025882;28;20041;-74
2022/10/27 12:56:29;;;;;;;14.27;6.68;;;;;;;;;;5051927;28;20386;-74
2022/10/27 12:58:55;;;;;;;18.23;7.53;;;;;;;;;;5048138;28;20029;-74
2022/10/27 13:01:40;;;;;;;14.10;7.63;;;;;;;;;;5042005;28;20375;-74
2022/10/27 13:04:27;;;;;;;18.27;8.77;;;;;;;;;;5049014;28;20063;-74
2022/10/27 13:06:59;;;;;;;17.25;9.23;;;;;;;;;;5053574;28;20029;-74
2022/10/27 13:09:34;;;;;;;10.63;7.00;;;;;;;;;;5048155;28;20025;-73
2022/10/27 13:12:06;;;;;;;14.88;6.53;;;;;;;;;;5052281;28;20028;-73
2022/10/27 13:14:38;;;;;;;14.57;7.00;;;;;;;;;;5043998;28;20033;-73
2022/10/27 13:17:11;;;;;;;13.45;6.57;;;;;;;;;;5051347;28;20021;-73
2022/10/27 13:19:53;;;;;;;12.00;5.88;;;;;;;;;;5048442;28;20505;-74
2022/10/27 13:22:34;;;;;;;14.13;6.13;;;;;;;;;;5051248;28;20079;-73
2022/10/27 13:25:16;;;;;;;20.35;6.57;;;;;;;;;;5057899;28;20028;-73
2022/10/27 13:27:45;;;;;;;13.82;6.15;;;;;;;;;;5042155;28;21957;-72
2022/10/27 13:30:19;;;;;;;11.98;5.97;;;;;;;;;;5041405;28;20091;-74
2022/10/27 13:32:45;;;;;;;15.18;5.88;;;;;;;;;;5057001;28;20017;-73
2022/10/27 13:35:11;;;;;;;10.35;5.30;;;;;;;;;;5057698;28;20033;-74
2022/10/27 13:37:37;;;;;;;11.18;5.65;;;;;;;;;;5053444;28;20419;-73
2022/10/27 13:40:23;;;;;;;10.50;5.43;;;;;;;;;;5059636;28;20057;-74
2022/10/27 13:42:51;;;;;;;14.43;5.70;;;;;;;;;;5047621;28;20032;-73
2022/10/27 13:45:25;;;;;;;16.98;6.22;;;;;;;;;;5049785;28;20104;-74
2022/10/27 13:48:07;;;;;;;13.02;6.35;;;;;;;;;;5059553;28;20108;-74
2022/10/27 13:50:35;;;;;;;11.77;5.53;;;;;;;;;;5048294;28;20035;-74
2022/10/27 13:53:19;;;;;;;10.30;5.13;;;;;;;;;;5049926;28;20487;-74
2022/10/27 13:55:45;;;;;;;18.45;7.35;;;;;;;;;;5051952;28;20029;-74
2022/10/27 13:58:18;;;;;;;10.70;5.50;;;;;;;;;;5047854;28;20029;-73
2022/10/27 14:01:02;;;;;;;13.73;5.38;;;;;;;;;;5040314;28;20045;-74
2022/10/27 14:03:34;;;;;;;9.93;5.20;;;;;;;;;;5050094;28;20029;-74
2022/10/27 14:06:00;;;;;;;10.30;5.10;;;;;;;;;;5049411;28;20033;-74
2022/10/27 14:08:30;;;;;;;12.48;5.50;;;;;;;;;;5046654;28;20474;-73
2022/10/27 14:10:59;;;;;;;19.75;5.75;;;;;;;;;;5048851;28;20116;-74
2022/10/27 14:13:25;;;;;;;9.18;5.32;;;;;;;;;;5052068;28;20501;-74
2022/10/27 14:15:56;;;;;;;13.98;5.47;;;;;;;;;;5055048;28;20025;-73
2022/10/27 14:18:28;;;;;;;12.60;6.47;;;;;;;;;;5056867;28;20035;-73
2022/10/27 14:20:55;;;;;;;14.38;6.00;;;;;;;;;;5051887;28;20024;-74
2022/10/27 14:23:21;;;;;;;12.57;5.60;;;;;;;;;;5061487;28;20033;-74
2022/10/27 14:25:47;;;;;;;10.20;5.72;;;;;;;;;;5063961;28;20044;-74
2022/10/27 14:28:16;;;;;;;12.25;5.43;;;;;;;;;;5057528;28;20502;-74
2022/10/27 14:30:42;;;;;;;13.32;5.55;;;;;;;;;;5053600;28;20033;-73
2022/10/27 14:33:19;;;;;;;12.88;5.70;;;;;;;;;;5052500;28;20113;-74
2022/10/27 14:35:45;;;;;;;14.10;6.00;;;;;;;;;;5056148;28;20025;-74
2022/10/27 14:38:15;;;;;;;19.90;5.45;;;;;;;;;;5062456;28;20097;-73
2022/10/27 14:40:41;;;;;;;17.85;5.85;;;;;;;;;;5056782;28;20021;-73
2022/10/27 14:43:19;;;;;;;14.23;5.40;;;;;;;;;;5054537;28;20392;-74
2022/10/27 14:45:45;;;;;;;43.95;7.35;;;;;;;;;;5054788;28;20111;-73